createdAt,value
2023-01-18T00:04:11.123Z,39.60
2023-01-18T00:09:12.558Z,39.70
2023-01-18T00:14:14.142Z,39.70
2023-01-18T00:19:15.617Z,39.70
2023-01-18T00:24:17.059Z,39.70
2023-01-18T00:29:18.461Z,39.70
2023-01-18T00:34:19.864Z,39.60
2023-01-18T00:39:21.273Z,39.60
2023-01-18T00:44:22.700Z,39.60
2023-01-18T00:49:24.111Z,39.50
2023-01-18T00:54:25.521Z,39.60
2023-01-18T00:59:26.912Z,39.60
2023-01-18T01:04:28.316Z,39.60
2023-01-18T01:09:29.697Z,39.60
2023-01-18T01:14:31.092Z,39.50
2023-01-18T01:19:32.491Z,39.60
2023-01-18T01:24:33.906Z,39.60
2023-01-18T01:29:35.303Z,39.50
2023-01-18T01:34:36.753Z,39.50
2023-01-18T01:39:38.161Z,39.50
2023-01-18T01:44:39.560Z,39.40
2023-01-18T01:49:40.969Z,39.40
2023-01-18T01:54:42.433Z,39.60
2023-01-18T01:59:43.848Z,39.40
2023-01-18T02:04:45.257Z,39.40
2023-01-18T02:09:46.643Z,39.40
2023-01-18T02:14:48.100Z,39.40
2023-01-18T02:19:49.509Z,39.40
2023-01-18T02:24:50.916Z,39.40
2023-01-18T02:29:52.330Z,39.40
2023-01-18T02:34:53.715Z,39.40
2023-01-18T02:39:55.120Z,39.40
2023-01-18T02:44:56.542Z,39.40
2023-01-18T02:49:57.960Z,39.40
2023-01-18T02:54:59.427Z,39.40
2023-01-18T03:00:00.849Z,39.50
2023-01-18T03:05:02.248Z,39.60
2023-01-18T03:10:03.638Z,40.20
2023-01-18T03:15:05.065Z,39.40
2023-01-18T03:20:06.559Z,39.30
2023-01-18T03:25:07.984Z,39.30
2023-01-18T03:30:09.389Z,39.30
2023-01-18T03:35:10.794Z,39.20
2023-01-18T03:40:12.190Z,39.20
2023-01-18T03:45:13.575Z,39.20
2023-01-18T03:50:14.976Z,39.20
2023-01-18T03:55:16.388Z,39.20
2023-01-18T04:00:17.795Z,39.20
2023-01-18T04:05:19.194Z,39.20
2023-01-18T04:10:20.591Z,39.20
2023-01-18T04:15:21.990Z,39.20
2023-01-18T04:20:23.393Z,39.10
2023-01-18T04:25:24.805Z,39.10
2023-01-18T04:30:26.198Z,39.10
2023-01-18T04:35:27.610Z,39.10
2023-01-18T04:40:29.021Z,39.20
2023-01-18T04:45:30.769Z,39.10
2023-01-18T04:50:32.181Z,39.10
2023-01-18T04:55:33.583Z,39.10
2023-01-18T05:00:35.027Z,39.10
2023-01-18T05:05:36.482Z,39.00
2023-01-18T05:10:37.882Z,39.10
2023-01-18T05:15:39.289Z,39.10
2023-01-18T05:20:40.731Z,39.10
2023-01-18T05:25:42.125Z,39.00
2023-01-18T05:30:43.537Z,39.00
2023-01-18T05:35:44.969Z,39.10
2023-01-18T05:40:46.373Z,39.00
2023-01-18T05:45:47.804Z,39.60
2023-01-18T05:50:49.232Z,39.00
2023-01-18T05:55:50.630Z,39.10
2023-01-18T06:00:52.143Z,39.00
2023-01-18T06:05:54.136Z,39.00
2023-01-18T06:10:55.546Z,39.00
2023-01-18T06:15:57.028Z,39.00
2023-01-18T06:21:01.394Z,38.90
2023-01-18T06:26:03.041Z,39.00
2023-01-18T06:31:04.443Z,39.00
2023-01-18T06:36:05.886Z,39.10
2023-01-18T06:41:07.324Z,39.20
2023-01-18T06:46:08.728Z,39.10
2023-01-18T06:51:10.834Z,39.00
2023-01-18T06:56:12.255Z,39.00
2023-01-18T07:01:13.880Z,38.90
2023-01-18T07:06:15.391Z,38.90
2023-01-18T07:11:16.824Z,38.90
2023-01-18T07:16:18.343Z,38.80
2023-01-18T07:21:20.192Z,38.90
2023-01-18T07:26:21.602Z,38.80
2023-01-18T07:31:23.021Z,38.80
2023-01-18T07:36:24.445Z,38.80
2023-01-18T07:41:25.844Z,38.80
2023-01-18T07:46:27.325Z,38.90
2023-01-18T07:51:28.728Z,38.80
2023-01-18T07:56:30.264Z,38.80
2023-01-18T08:01:31.773Z,38.80
2023-01-18T08:06:33.263Z,38.70
2023-01-18T08:11:34.684Z,38.70
2023-01-18T08:16:36.874Z,38.70
2023-01-18T08:21:38.280Z,38.70
2023-01-18T08:26:39.686Z,38.80
2023-01-18T08:31:41.112Z,38.70
2023-01-18T08:36:42.511Z,38.80
2023-01-18T08:41:43.912Z,38.70
2023-01-18T08:46:45.358Z,38.80
2023-01-18T08:51:46.796Z,38.80
2023-01-18T08:56:48.187Z,38.80
2023-01-18T09:01:49.669Z,38.80
2023-01-18T09:06:51.113Z,38.80
2023-01-18T09:11:52.521Z,38.70
2023-01-18T09:16:53.956Z,38.80
2023-01-18T09:21:55.447Z,38.70
2023-01-18T09:26:56.841Z,38.80
2023-01-18T09:31:58.262Z,38.80
2023-01-18T09:36:59.690Z,38.70
2023-01-18T09:42:01.121Z,38.70
2023-01-18T09:47:02.533Z,38.90
2023-01-18T09:52:03.946Z,38.90
2023-01-18T09:57:05.359Z,38.90
2023-01-18T10:02:06.934Z,38.80
2023-01-18T10:07:08.388Z,38.80
2023-01-18T10:12:09.789Z,38.80
2023-01-18T10:17:11.388Z,38.70
2023-01-18T10:22:12.837Z,38.80
2023-01-18T10:27:14.249Z,38.70
2023-01-18T10:32:15.658Z,38.70
2023-01-18T10:37:17.066Z,38.70
2023-01-18T10:42:18.469Z,38.70
2023-01-18T10:47:19.904Z,38.70
2023-01-18T10:52:21.315Z,39.20
2023-01-18T10:57:22.740Z,38.60
2023-01-18T11:02:24.182Z,38.70
2023-01-18T11:07:25.677Z,38.70
2023-01-18T11:12:27.088Z,38.60
2023-01-18T11:17:28.475Z,38.60
2023-01-18T11:22:29.897Z,38.60
2023-01-18T11:27:31.424Z,38.80
2023-01-18T11:32:32.831Z,39.40
2023-01-18T11:37:34.262Z,39.50
2023-01-18T11:42:35.692Z,39.60
2023-01-18T11:47:37.116Z,39.70
2023-01-18T11:52:38.643Z,39.80
2023-01-18T11:57:40.114Z,39.70
2023-01-18T12:02:41.559Z,39.80
2023-01-18T12:07:42.963Z,39.70
2023-01-18T12:12:44.399Z,39.80
2023-01-18T12:17:46.249Z,39.70
2023-01-18T12:22:47.735Z,39.60
2023-01-18T12:27:49.124Z,39.60
2023-01-18T12:32:50.590Z,39.60
2023-01-18T12:37:51.998Z,39.60
2023-01-18T12:42:53.403Z,39.60
2023-01-18T12:47:54.990Z,39.60
2023-01-18T12:52:56.439Z,39.70
2023-01-18T12:57:58.146Z,39.70
2023-01-18T13:02:59.958Z,39.60
2023-01-18T13:08:01.551Z,39.60
2023-01-18T13:13:03.149Z,39.40
2023-01-18T13:18:04.551Z,39.50
2023-01-18T13:23:05.961Z,39.50
2023-01-18T13:28:07.362Z,39.60
2023-01-18T13:33:08.767Z,39.40
2023-01-18T13:38:10.214Z,39.20
2023-01-18T13:43:11.667Z,39.40
2023-01-18T13:48:13.083Z,39.40
2023-01-18T13:53:14.558Z,39.40
2023-01-18T13:58:15.970Z,39.60
2023-01-18T14:03:17.405Z,39.50
2023-01-18T14:08:18.835Z,39.60
2023-01-18T14:13:20.289Z,39.50
2023-01-18T14:18:21.744Z,39.40
2023-01-18T14:23:25.106Z,39.50
2023-01-18T14:28:26.628Z,39.50
2023-01-18T14:33:28.115Z,39.30
2023-01-18T14:38:29.540Z,39.40
2023-01-18T14:43:31.031Z,39.40
2023-01-18T14:48:32.444Z,39.40
2023-01-18T14:53:33.863Z,39.10
2023-01-18T14:58:35.295Z,39.20
2023-01-18T15:03:36.723Z,39.30
2023-01-18T15:08:38.185Z,39.30
2023-01-18T15:13:39.595Z,39.30
2023-01-18T15:18:41.062Z,39.90
2023-01-18T15:23:42.557Z,39.40
2023-01-18T15:28:44.011Z,39.40
2023-01-18T15:33:45.452Z,39.30
2023-01-18T15:38:46.875Z,39.00
2023-01-18T15:43:48.302Z,39.30
2023-01-18T15:48:49.714Z,39.50
2023-01-18T15:53:51.116Z,40.20
2023-01-18T15:58:52.581Z,39.60
2023-01-18T16:03:53.996Z,39.70
2023-01-18T16:08:55.482Z,39.70
2023-01-18T16:13:56.893Z,39.70
2023-01-18T16:18:58.299Z,39.20
2023-01-18T16:23:59.711Z,39.70
2023-01-18T16:29:01.144Z,39.80
2023-01-18T16:34:02.547Z,39.90
2023-01-18T16:39:03.972Z,40.00
2023-01-18T16:44:05.395Z,40.00
2023-01-18T16:49:06.806Z,40.00
2023-01-18T16:54:08.241Z,39.90
2023-01-18T16:59:09.647Z,40.00
2023-01-18T17:04:11.065Z,39.90
2023-01-18T17:09:12.522Z,39.80
2023-01-18T17:14:14.215Z,39.80
2023-01-18T17:19:15.677Z,39.80
2023-01-18T17:24:17.103Z,39.80
2023-01-18T17:29:18.519Z,39.90
2023-01-18T17:34:23.299Z,40.40
2023-01-18T17:39:37.064Z,40.50
2023-01-18T17:44:48.074Z,40.20
2023-01-18T17:49:49.487Z,39.90
2023-01-18T17:54:50.894Z,39.80
2023-01-18T17:59:52.328Z,40.40
2023-01-18T18:04:53.786Z,40.00
2023-01-18T18:09:55.205Z,39.90
2023-01-18T18:14:56.651Z,39.80
2023-01-18T18:19:58.104Z,39.70
2023-01-18T18:24:59.518Z,39.60
2023-01-18T18:30:00.944Z,39.70
2023-01-18T18:35:05.332Z,39.40
2023-01-18T18:40:06.878Z,39.70
2023-01-18T18:45:08.290Z,39.10
2023-01-18T18:50:09.742Z,39.40
2023-01-18T18:55:11.337Z,39.70
2023-01-18T19:00:12.762Z,40.10
2023-01-18T19:05:14.179Z,40.30
2023-01-18T19:10:15.684Z,40.50
2023-01-18T19:15:17.109Z,40.80
2023-01-18T19:20:18.556Z,40.70
2023-01-18T19:25:20.000Z,40.90
2023-01-18T19:30:21.438Z,41.00
2023-01-18T19:35:22.843Z,40.90
2023-01-18T19:40:24.270Z,40.80
2023-01-18T19:45:29.031Z,41.10
2023-01-18T19:50:30.496Z,41.10
2023-01-18T19:55:31.930Z,41.20
2023-01-18T20:00:33.378Z,41.20
2023-01-18T20:05:34.805Z,41.40
2023-01-18T20:10:36.213Z,41.30
2023-01-18T20:15:37.614Z,41.50
2023-01-18T20:20:39.092Z,41.60
2023-01-18T20:25:40.506Z,41.60
2023-01-18T20:30:42.053Z,41.70
2023-01-18T20:35:43.485Z,41.60
2023-01-18T20:40:44.896Z,41.50
2023-01-18T20:45:46.354Z,41.50
2023-01-18T20:50:47.776Z,41.50
2023-01-18T20:55:49.171Z,41.40
2023-01-18T21:00:50.698Z,41.10
2023-01-18T21:05:52.189Z,40.90
2023-01-18T21:10:53.582Z,40.80
2023-01-18T21:15:55.008Z,40.70
2023-01-18T21:20:56.418Z,40.30
2023-01-18T21:25:57.815Z,39.80
2023-01-18T21:30:59.231Z,39.60
2023-01-18T21:36:00.632Z,39.70
2023-01-18T21:41:02.034Z,39.70
2023-01-18T21:46:03.492Z,39.80
2023-01-18T21:51:04.945Z,39.70
2023-01-18T21:56:06.370Z,39.70
2023-01-18T22:01:07.898Z,39.90
2023-01-18T22:06:09.367Z,39.90
2023-01-18T22:11:10.788Z,39.80
2023-01-18T22:16:12.227Z,39.80
2023-01-18T22:21:13.653Z,39.70
2023-01-18T22:26:15.060Z,39.60
2023-01-18T22:31:16.561Z,39.60
2023-01-18T22:36:18.005Z,39.60
2023-01-18T22:41:19.413Z,39.80
2023-01-18T22:46:20.824Z,39.20
2023-01-18T22:51:22.262Z,38.80
2023-01-18T22:56:23.680Z,38.70
2023-01-18T23:01:25.252Z,38.70
2023-01-18T23:06:26.697Z,38.60
2023-01-18T23:11:28.105Z,38.70
2023-01-18T23:16:29.531Z,38.80
2023-01-18T23:21:30.945Z,38.60
2023-01-18T23:26:32.351Z,39.30
2023-01-18T23:31:33.752Z,38.80
2023-01-18T23:36:35.150Z,38.90
2023-01-18T23:41:36.549Z,38.90
2023-01-18T23:46:37.979Z,38.90
2023-01-18T23:51:39.432Z,38.90
2023-01-18T23:56:40.957Z,38.80
